This is the latest recevied weather packets stored in our database for station/object HS5AU-13. If no packets are shown the sender has not sent any weather packets the latest 1 day(s).
| Time | Temp. | Humidity | Pressure | Rain* | Wind** | Luminosity | Snow |
|---|---|---|---|---|---|---|---|
| 1788596107 | 25° C | 89% | 1003.6 hPa | 0 mm | - | 143 W/m² | - |
| 1788595507 | 24.44° C | 93% | 1002.6 hPa | 0 mm | - | 175 W/m² | - |
| 1788594907 | 23.89° C | 99% | 1001.3 hPa | 0 mm | - | 182 W/m² | - |
| 1788594307 | 23.89° C | 98% | 1001.7 hPa | 0 mm | - | 125 W/m² | - |
| 1788593707 | 23.89° C | 98% | 1001.9 hPa | 0 mm | - | 145 W/m² | - |
| 1788593107 | 23.89° C | 98% | 1002.2 hPa | 0 mm | - | 140 W/m² | - |
| 1788592507 | 24.44° C | 98% | 1002.2 hPa | 0 mm | - | 138 W/m² | - |
| 1788591907 | 24.44° C | 96% | 1002.3 hPa | 0 mm | - | 61 W/m² | - |
| 1788591307 | 26.11° C | 88% | 1005.2 hPa | 0 mm | - | 154 W/m² | - |
| 1788590707 | 28.89° C | 86% | 1006.6 hPa | 0 mm | - | 452 W/m² | - |
| 1788590107 | 30° C | 76% | 1007.5 hPa | 0 mm | - | 245 W/m² | - |
| 1788589507 | 30.56° C | 67% | 1007.7 hPa | 0 mm | - | 512 W/m² | - |
| 1788588907 | 30° C | 70% | 1007.9 hPa | 0 mm | - | 1087 W/m² | - |
| 1788588307 | 29.44° C | 72% | 1008 hPa | 0 mm | - | 453 W/m² | - |
| 1788587707 | 30° C | 73% | 1008.2 hPa | 0 mm | - | 811 W/m² | - |
| 1788587107 | 29.44° C | 72% | 1008.4 hPa | 0 mm | - | 1196 W/m² | - |
| 1788586507 | 29.44° C | 74% | 1008.4 hPa | 0 mm | - | 458 W/m² | - |
| 1788585907 | 28.33° C | 75% | 1008.4 hPa | 0 mm | - | 1097 W/m² | - |
| 1788585307 | 28.33° C | 76% | 1008.6 hPa | 0 mm | - | 1289 W/m² | - |
| 1788584707 | 27.78° C | 73% | 1009 hPa | 0 mm | - | 590 W/m² | - |
| 1788584107 | 27.78° C | 76% | 1008.9 hPa | 0 mm | - | 811 W/m² | - |
| 1788583507 | 28.33° C | 80% | 1008.6 hPa | 0 mm | - | 666 W/m² | - |
| 1788582907 | 28.33° C | 89% | 1008.1 hPa | 0 mm | - | 592 W/m² | - |
| 1788582307 | 27.78° C | 83% | 1008.7 hPa | 0 mm | - | 503 W/m² | - |
| 1788581707 | 28.33° C | 84% | 1009.2 hPa | 0 mm | - | 700 W/m² | - |
* Rain latest hour (hover to see other rain measurements)
** Current wind speed in m/s (hover to see current wind gust speed)